sensor_id;sensor_type;location;lat;lon;timestamp;P1;durP1;ratioP1;P2;durP2;ratioP2
43628;SDS011;56545;48.224;11.678;2023-04-03T00:01:39;8.32;;;4.30;;
43628;SDS011;56545;48.224;11.678;2023-04-03T00:04:05;8.68;;;4.43;;
43628;SDS011;56545;48.224;11.678;2023-04-03T00:06:31;7.93;;;4.38;;
43628;SDS011;56545;48.224;11.678;2023-04-03T00:08:57;7.60;;;4.22;;
43628;SDS011;56545;48.224;11.678;2023-04-03T00:11:23;10.10;;;4.57;;
43628;SDS011;56545;48.224;11.678;2023-04-03T00:13:50;8.05;;;4.60;;
43628;SDS011;56545;48.224;11.678;2023-04-03T00:16:16;8.38;;;4.80;;
43628;SDS011;56545;48.224;11.678;2023-04-03T00:18:42;10.23;;;4.80;;
43628;SDS011;56545;48.224;11.678;2023-04-03T00:21:09;7.82;;;4.20;;
43628;SDS011;56545;48.224;11.678;2023-04-03T00:23:37;9.40;;;4.82;;
43628;SDS011;56545;48.224;11.678;2023-04-03T00:26:03;11.32;;;4.60;;
43628;SDS011;56545;48.224;11.678;2023-04-03T00:28:29;6.70;;;3.83;;
43628;SDS011;56545;48.224;11.678;2023-04-03T00:30:55;9.27;;;4.75;;
43628;SDS011;56545;48.224;11.678;2023-04-03T00:33:21;8.75;;;4.72;;
43628;SDS011;56545;48.224;11.678;2023-04-03T00:35:47;8.70;;;4.53;;
43628;SDS011;56545;48.224;11.678;2023-04-03T00:38:14;9.43;;;4.45;;
43628;SDS011;56545;48.224;11.678;2023-04-03T00:40:42;9.27;;;4.47;;
43628;SDS011;56545;48.224;11.678;2023-04-03T00:43:28;8.15;;;4.18;;
43628;SDS011;56545;48.224;11.678;2023-04-03T00:45:58;7.63;;;4.07;;
43628;SDS011;56545;48.224;11.678;2023-04-03T00:48:38;7.30;;;3.85;;
43628;SDS011;56545;48.224;11.678;2023-04-03T00:51:11;6.30;;;3.83;;
43628;SDS011;56545;48.224;11.678;2023-04-03T00:53:55;7.63;;;4.18;;
43628;SDS011;56545;48.224;11.678;2023-04-03T00:58:54;6.68;;;3.78;;
43628;SDS011;56545;48.224;11.678;2023-04-03T01:01:25;8.77;;;4.18;;
43628;SDS011;56545;48.224;11.678;2023-04-03T01:03:53;8.60;;;4.15;;
43628;SDS011;56545;48.224;11.678;2023-04-03T01:06:23;6.45;;;3.80;;
43628;SDS011;56545;48.224;11.678;2023-04-03T01:08:52;7.28;;;3.65;;
43628;SDS011;56545;48.224;11.678;2023-04-03T01:11:19;6.75;;;3.90;;
43628;SDS011;56545;48.224;11.678;2023-04-03T01:13:45;7.63;;;3.75;;
43628;SDS011;56545;48.224;11.678;2023-04-03T01:16:12;7.55;;;3.45;;
43628;SDS011;56545;48.224;11.678;2023-04-03T01:18:38;7.47;;;3.92;;
43628;SDS011;56545;48.224;11.678;2023-04-03T01:26:14;7.00;;;3.72;;
43628;SDS011;56545;48.224;11.678;2023-04-03T01:28:41;6.85;;;3.70;;
43628;SDS011;56545;48.224;11.678;2023-04-03T01:33:37;6.18;;;3.67;;
43628;SDS011;56545;48.224;11.678;2023-04-03T01:36:03;6.82;;;3.50;;
43628;SDS011;56545;48.224;11.678;2023-04-03T01:38:30;5.75;;;3.45;;
43628;SDS011;56545;48.224;11.678;2023-04-03T01:40:56;6.97;;;3.42;;
43628;SDS011;56545;48.224;11.678;2023-04-03T01:43:22;6.45;;;3.92;;
43628;SDS011;56545;48.224;11.678;2023-04-03T01:45:48;7.03;;;3.70;;
43628;SDS011;56545;48.224;11.678;2023-04-03T01:48:15;7.53;;;3.80;;
43628;SDS011;56545;48.224;11.678;2023-04-03T01:50:41;6.47;;;3.50;;
43628;SDS011;56545;48.224;11.678;2023-04-03T01:53:07;6.45;;;3.67;;
43628;SDS011;56545;48.224;11.678;2023-04-03T01:55:33;6.18;;;3.13;;
43628;SDS011;56545;48.224;11.678;2023-04-03T01:57:59;8.63;;;3.60;;
43628;SDS011;56545;48.224;11.678;2023-04-03T02:00:25;7.22;;;3.35;;
43628;SDS011;56545;48.224;11.678;2023-04-03T02:02:51;5.65;;;3.03;;
43628;SDS011;56545;48.224;11.678;2023-04-03T02:05:17;6.40;;;3.20;;
43628;SDS011;56545;48.224;11.678;2023-04-03T02:07:43;8.52;;;3.30;;
43628;SDS011;56545;48.224;11.678;2023-04-03T02:10:10;6.10;;;3.13;;
43628;SDS011;56545;48.224;11.678;2023-04-03T02:12:36;6.20;;;2.95;;
43628;SDS011;56545;48.224;11.678;2023-04-03T02:15:02;6.90;;;3.30;;
43628;SDS011;56545;48.224;11.678;2023-04-03T02:17:28;5.95;;;3.15;;
43628;SDS011;56545;48.224;11.678;2023-04-03T02:19:56;6.35;;;3.33;;
43628;SDS011;56545;48.224;11.678;2023-04-03T02:22:21;5.75;;;2.90;;
43628;SDS011;56545;48.224;11.678;2023-04-03T02:24:47;6.15;;;2.88;;
43628;SDS011;56545;48.224;11.678;2023-04-03T02:27:13;7.07;;;2.80;;
43628;SDS011;56545;48.224;11.678;2023-04-03T02:29:39;6.15;;;2.85;;
43628;SDS011;56545;48.224;11.678;2023-04-03T02:32:05;5.28;;;2.70;;
43628;SDS011;56545;48.224;11.678;2023-04-03T02:34:31;5.30;;;2.72;;
43628;SDS011;56545;48.224;11.678;2023-04-03T02:36:57;6.10;;;2.60;;
43628;SDS011;56545;48.224;11.678;2023-04-03T02:39:23;5.13;;;2.35;;
43628;SDS011;56545;48.224;11.678;2023-04-03T02:41:49;5.18;;;2.50;;
43628;SDS011;56545;48.224;11.678;2023-04-03T02:44:15;4.80;;;2.38;;
43628;SDS011;56545;48.224;11.678;2023-04-03T02:46:41;5.43;;;2.45;;
43628;SDS011;56545;48.224;11.678;2023-04-03T02:49:06;5.43;;;2.60;;
43628;SDS011;56545;48.224;11.678;2023-04-03T02:51:32;5.65;;;2.28;;
43628;SDS011;56545;48.224;11.678;2023-04-03T02:53:58;5.38;;;2.25;;
43628;SDS011;56545;48.224;11.678;2023-04-03T02:56:25;6.72;;;2.45;;
43628;SDS011;56545;48.224;11.678;2023-04-03T02:58:51;4.90;;;2.20;;
43628;SDS011;56545;48.224;11.678;2023-04-03T03:01:17;6.18;;;2.70;;
43628;SDS011;56545;48.224;11.678;2023-04-03T03:03:43;4.93;;;2.25;;
43628;SDS011;56545;48.224;11.678;2023-04-03T03:06:11;4.55;;;2.25;;
43628;SDS011;56545;48.224;11.678;2023-04-03T03:08:40;4.57;;;2.60;;
43628;SDS011;56545;48.224;11.678;2023-04-03T03:11:06;5.97;;;2.35;;
43628;SDS011;56545;48.224;11.678;2023-04-03T03:13:32;5.57;;;2.40;;
43628;SDS011;56545;48.224;11.678;2023-04-03T03:15:59;4.15;;;2.10;;
43628;SDS011;56545;48.224;11.678;2023-04-03T03:18:25;4.82;;;2.25;;
43628;SDS011;56545;48.224;11.678;2023-04-03T03:20:54;5.63;;;2.20;;
43628;SDS011;56545;48.224;11.678;2023-04-03T03:23:22;9.23;;;2.53;;
43628;SDS011;56545;48.224;11.678;2023-04-03T03:25:53;4.55;;;2.17;;
43628;SDS011;56545;48.224;11.678;2023-04-03T03:28:20;5.88;;;2.47;;
43628;SDS011;56545;48.224;11.678;2023-04-03T03:30:46;5.68;;;2.40;;
43628;SDS011;56545;48.224;11.678;2023-04-03T03:33:12;5.43;;;2.40;;
43628;SDS011;56545;48.224;11.678;2023-04-03T03:35:38;4.90;;;2.20;;
43628;SDS011;56545;48.224;11.678;2023-04-03T03:38:05;5.28;;;2.22;;
43628;SDS011;56545;48.224;11.678;2023-04-03T03:40:31;4.70;;;1.90;;
43628;SDS011;56545;48.224;11.678;2023-04-03T03:42:56;6.88;;;2.50;;
43628;SDS011;56545;48.224;11.678;2023-04-03T03:45:22;5.28;;;2.60;;
43628;SDS011;56545;48.224;11.678;2023-04-03T03:47:48;6.38;;;2.40;;
43628;SDS011;56545;48.224;11.678;2023-04-03T03:50:14;5.72;;;2.50;;
43628;SDS011;56545;48.224;11.678;2023-04-03T03:52:40;4.70;;;2.30;;
43628;SDS011;56545;48.224;11.678;2023-04-03T03:55:06;4.93;;;2.50;;
43628;SDS011;56545;48.224;11.678;2023-04-03T03:57:33;4.65;;;2.20;;
43628;SDS011;56545;48.224;11.678;2023-04-03T03:59:58;4.72;;;2.45;;
43628;SDS011;56545;48.224;11.678;2023-04-03T04:02:24;4.65;;;2.17;;
43628;SDS011;56545;48.224;11.678;2023-04-03T04:04:50;5.28;;;2.30;;
43628;SDS011;56545;48.224;11.678;2023-04-03T04:07:16;4.00;;;2.00;;
43628;SDS011;56545;48.224;11.678;2023-04-03T04:09:42;4.63;;;2.28;;
43628;SDS011;56545;48.224;11.678;2023-04-03T04:12:08;5.55;;;2.33;;
43628;SDS011;56545;48.224;11.678;2023-04-03T04:14:34;5.10;;;2.42;;
43628;SDS011;56545;48.224;11.678;2023-04-03T04:17:00;5.95;;;2.58;;
43628;SDS011;56545;48.224;11.678;2023-04-03T04:19:27;4.25;;;2.03;;
43628;SDS011;56545;48.224;11.678;2023-04-03T04:21:53;5.50;;;2.50;;
43628;SDS011;56545;48.224;11.678;2023-04-03T04:24:19;4.00;;;2.13;;
43628;SDS011;56545;48.224;11.678;2023-04-03T04:26:45;3.97;;;2.05;;
43628;SDS011;56545;48.224;11.678;2023-04-03T04:29:11;5.75;;;2.65;;
43628;SDS011;56545;48.224;11.678;2023-04-03T04:31:37;7.20;;;2.28;;
43628;SDS011;56545;48.224;11.678;2023-04-03T04:34:03;5.53;;;2.45;;
43628;SDS011;56545;48.224;11.678;2023-04-03T04:36:29;5.15;;;2.53;;
43628;SDS011;56545;48.224;11.678;2023-04-03T04:38:54;8.25;;;2.83;;
43628;SDS011;56545;48.224;11.678;2023-04-03T04:41:21;5.43;;;2.53;;
43628;SDS011;56545;48.224;11.678;2023-04-03T04:43:51;4.80;;;2.40;;
43628;SDS011;56545;48.224;11.678;2023-04-03T04:46:17;5.47;;;2.40;;
43628;SDS011;56545;48.224;11.678;2023-04-03T04:48:43;5.00;;;2.38;;
43628;SDS011;56545;48.224;11.678;2023-04-03T04:51:10;5.78;;;2.85;;
43628;SDS011;56545;48.224;11.678;2023-04-03T04:53:36;5.10;;;2.50;;
43628;SDS011;56545;48.224;11.678;2023-04-03T04:56:02;5.15;;;2.60;;
43628;SDS011;56545;48.224;11.678;2023-04-03T04:58:28;5.45;;;2.47;;
43628;SDS011;56545;48.224;11.678;2023-04-03T05:00:58;5.30;;;2.53;;
43628;SDS011;56545;48.224;11.678;2023-04-03T05:03:25;5.15;;;2.33;;
43628;SDS011;56545;48.224;11.678;2023-04-03T05:05:50;5.85;;;2.60;;
43628;SDS011;56545;48.224;11.678;2023-04-03T05:08:16;5.85;;;2.45;;
43628;SDS011;56545;48.224;11.678;2023-04-03T05:10:44;7.10;;;2.65;;
43628;SDS011;56545;48.224;11.678;2023-04-03T05:13:10;4.65;;;2.45;;
43628;SDS011;56545;48.224;11.678;2023-04-03T05:15:36;5.57;;;2.45;;
43628;SDS011;56545;48.224;11.678;2023-04-03T05:18:02;6.00;;;2.65;;
43628;SDS011;56545;48.224;11.678;2023-04-03T05:20:28;6.55;;;2.80;;
43628;SDS011;56545;48.224;11.678;2023-04-03T05:22:54;5.95;;;2.92;;
43628;SDS011;56545;48.224;11.678;2023-04-03T05:25:20;6.13;;;3.10;;
43628;SDS011;56545;48.224;11.678;2023-04-03T05:27:46;6.97;;;3.00;;
43628;SDS011;56545;48.224;11.678;2023-04-03T05:30:12;6.68;;;2.97;;
43628;SDS011;56545;48.224;11.678;2023-04-03T05:32:38;7.43;;;3.13;;
43628;SDS011;56545;48.224;11.678;2023-04-03T05:35:05;6.65;;;2.83;;
43628;SDS011;56545;48.224;11.678;2023-04-03T05:37:32;6.25;;;2.78;;
43628;SDS011;56545;48.224;11.678;2023-04-03T05:39:58;6.53;;;2.90;;
43628;SDS011;56545;48.224;11.678;2023-04-03T05:42:24;5.65;;;3.03;;
43628;SDS011;56545;48.224;11.678;2023-04-03T05:44:50;6.30;;;3.10;;
43628;SDS011;56545;48.224;11.678;2023-04-03T05:47:17;7.30;;;3.13;;
43628;SDS011;56545;48.224;11.678;2023-04-03T05:49:44;6.72;;;3.03;;
43628;SDS011;56545;48.224;11.678;2023-04-03T05:52:23;5.57;;;2.70;;
43628;SDS011;56545;48.224;11.678;2023-04-03T05:54:52;6.05;;;2.95;;
43628;SDS011;56545;48.224;11.678;2023-04-03T05:57:18;7.30;;;3.10;;
43628;SDS011;56545;48.224;11.678;2023-04-03T05:59:45;7.25;;;3.20;;
43628;SDS011;56545;48.224;11.678;2023-04-03T06:02:12;6.65;;;2.78;;
43628;SDS011;56545;48.224;11.678;2023-04-03T06:04:40;6.05;;;3.08;;
43628;SDS011;56545;48.224;11.678;2023-04-03T06:07:06;7.65;;;3.25;;
43628;SDS011;56545;48.224;11.678;2023-04-03T06:09:36;5.55;;;2.80;;
43628;SDS011;56545;48.224;11.678;2023-04-03T06:12:01;6.88;;;3.10;;
43628;SDS011;56545;48.224;11.678;2023-04-03T06:14:27;5.57;;;2.85;;
43628;SDS011;56545;48.224;11.678;2023-04-03T06:16:53;5.88;;;3.00;;
43628;SDS011;56545;48.224;11.678;2023-04-03T06:19:19;9.02;;;3.00;;
43628;SDS011;56545;48.224;11.678;2023-04-03T06:21:46;6.47;;;3.50;;
43628;SDS011;56545;48.224;11.678;2023-04-03T06:24:14;6.35;;;3.15;;
43628;SDS011;56545;48.224;11.678;2023-04-03T06:26:41;6.30;;;3.13;;
43628;SDS011;56545;48.224;11.678;2023-04-03T06:29:07;6.90;;;3.10;;
43628;SDS011;56545;48.224;11.678;2023-04-03T06:31:33;6.28;;;3.00;;
43628;SDS011;56545;48.224;11.678;2023-04-03T06:34:01;6.38;;;2.97;;
43628;SDS011;56545;48.224;11.678;2023-04-03T06:36:27;7.57;;;3.40;;
43628;SDS011;56545;48.224;11.678;2023-04-03T06:38:54;5.80;;;2.90;;
43628;SDS011;56545;48.224;11.678;2023-04-03T06:41:20;6.65;;;3.33;;
43628;SDS011;56545;48.224;11.678;2023-04-03T06:43:46;6.50;;;3.00;;
43628;SDS011;56545;48.224;11.678;2023-04-03T06:46:16;9.05;;;3.28;;
43628;SDS011;56545;48.224;11.678;2023-04-03T06:48:44;7.35;;;3.15;;
43628;SDS011;56545;48.224;11.678;2023-04-03T06:53:47;6.20;;;3.10;;
43628;SDS011;56545;48.224;11.678;2023-04-03T06:56:15;7.60;;;3.22;;
43628;SDS011;56545;48.224;11.678;2023-04-03T06:58:41;6.90;;;3.05;;
43628;SDS011;56545;48.224;11.678;2023-04-03T07:01:08;5.45;;;2.92;;
43628;SDS011;56545;48.224;11.678;2023-04-03T07:03:36;6.63;;;3.60;;
43628;SDS011;56545;48.224;11.678;2023-04-03T07:06:02;6.85;;;3.20;;
43628;SDS011;56545;48.224;11.678;2023-04-03T07:08:29;6.07;;;3.17;;
43628;SDS011;56545;48.224;11.678;2023-04-03T07:10:55;7.35;;;3.83;;
43628;SDS011;56545;48.224;11.678;2023-04-03T07:13:21;6.00;;;3.05;;
43628;SDS011;56545;48.224;11.678;2023-04-03T07:15:47;7.35;;;3.60;;
43628;SDS011;56545;48.224;11.678;2023-04-03T07:18:13;6.70;;;3.28;;
43628;SDS011;56545;48.224;11.678;2023-04-03T07:20:39;8.45;;;3.72;;
43628;SDS011;56545;48.224;11.678;2023-04-03T07:23:05;6.72;;;3.45;;
43628;SDS011;56545;48.224;11.678;2023-04-03T07:25:31;7.03;;;3.17;;
43628;SDS011;56545;48.224;11.678;2023-04-03T07:27:58;7.90;;;3.78;;
43628;SDS011;56545;48.224;11.678;2023-04-03T07:30:24;8.15;;;3.67;;
43628;SDS011;56545;48.224;11.678;2023-04-03T07:32:51;6.97;;;3.22;;
43628;SDS011;56545;48.224;11.678;2023-04-03T07:35:17;7.85;;;3.70;;
43628;SDS011;56545;48.224;11.678;2023-04-03T07:37:43;7.45;;;3.92;;
43628;SDS011;56545;48.224;11.678;2023-04-03T07:40:10;7.38;;;3.88;;
43628;SDS011;56545;48.224;11.678;2023-04-03T07:42:36;9.65;;;3.90;;
43628;SDS011;56545;48.224;11.678;2023-04-03T07:45:03;8.18;;;3.90;;
43628;SDS011;56545;48.224;11.678;2023-04-03T07:47:29;8.68;;;4.50;;
43628;SDS011;56545;48.224;11.678;2023-04-03T07:49:56;8.35;;;4.30;;
43628;SDS011;56545;48.224;11.678;2023-04-03T07:52:22;8.63;;;4.30;;
43628;SDS011;56545;48.224;11.678;2023-04-03T07:54:49;8.57;;;4.10;;
43628;SDS011;56545;48.224;11.678;2023-04-03T07:57:15;7.63;;;3.90;;
43628;SDS011;56545;48.224;11.678;2023-04-03T07:59:41;8.80;;;4.10;;
43628;SDS011;56545;48.224;11.678;2023-04-03T08:02:11;8.52;;;4.22;;
43628;SDS011;56545;48.224;11.678;2023-04-03T08:04:37;7.95;;;4.15;;
43628;SDS011;56545;48.224;11.678;2023-04-03T08:07:03;7.68;;;4.00;;
43628;SDS011;56545;48.224;11.678;2023-04-03T08:09:29;7.93;;;4.10;;
43628;SDS011;56545;48.224;11.678;2023-04-03T08:11:56;8.10;;;4.28;;
43628;SDS011;56545;48.224;11.678;2023-04-03T08:14:22;11.20;;;4.28;;
43628;SDS011;56545;48.224;11.678;2023-04-03T08:16:48;7.53;;;3.90;;
43628;SDS011;56545;48.224;11.678;2023-04-03T08:19:15;8.65;;;3.92;;
43628;SDS011;56545;48.224;11.678;2023-04-03T08:21:43;7.65;;;4.20;;
43628;SDS011;56545;48.224;11.678;2023-04-03T08:24:10;11.18;;;4.43;;
43628;SDS011;56545;48.224;11.678;2023-04-03T08:26:36;8.77;;;3.80;;
43628;SDS011;56545;48.224;11.678;2023-04-03T08:29:02;9.50;;;4.15;;
43628;SDS011;56545;48.224;11.678;2023-04-03T08:31:28;8.20;;;3.95;;
43628;SDS011;56545;48.224;11.678;2023-04-03T08:33:56;20.02;;;11.32;;
43628;SDS011;56545;48.224;11.678;2023-04-03T08:36:23;8.85;;;4.82;;
43628;SDS011;56545;48.224;11.678;2023-04-03T08:38:52;8.65;;;4.32;;
43628;SDS011;56545;48.224;11.678;2023-04-03T08:41:33;8.63;;;4.45;;
43628;SDS011;56545;48.224;11.678;2023-04-03T08:44:11;7.63;;;3.90;;
43628;SDS011;56545;48.224;11.678;2023-04-03T08:46:47;8.40;;;4.10;;
43628;SDS011;56545;48.224;11.678;2023-04-03T08:52:04;8.40;;;3.50;;
43628;SDS011;56545;48.224;11.678;2023-04-03T08:54:58;6.63;;;3.40;;
43628;SDS011;56545;48.224;11.678;2023-04-03T08:57:28;8.25;;;3.78;;
43628;SDS011;56545;48.224;11.678;2023-04-03T09:00:05;7.75;;;3.35;;
43628;SDS011;56545;48.224;11.678;2023-04-03T09:02:41;7.82;;;3.35;;
43628;SDS011;56545;48.224;11.678;2023-04-03T09:05:16;8.00;;;3.90;;
43628;SDS011;56545;48.224;11.678;2023-04-03T09:07:46;6.15;;;3.67;;
43628;SDS011;56545;48.224;11.678;2023-04-03T09:10:20;9.00;;;3.75;;
43628;SDS011;56545;48.224;11.678;2023-04-03T09:12:59;7.78;;;3.60;;
43628;SDS011;56545;48.224;11.678;2023-04-03T09:15:36;9.75;;;3.20;;
43628;SDS011;56545;48.224;11.678;2023-04-03T09:18:05;6.55;;;3.30;;
43628;SDS011;56545;48.224;11.678;2023-04-03T09:20:55;7.05;;;3.20;;
43628;SDS011;56545;48.224;11.678;2023-04-03T09:26:07;6.32;;;3.10;;
43628;SDS011;56545;48.224;11.678;2023-04-03T09:28:46;8.35;;;3.30;;
43628;SDS011;56545;48.224;11.678;2023-04-03T09:31:23;7.75;;;3.20;;
43628;SDS011;56545;48.224;11.678;2023-04-03T09:34:08;7.20;;;3.15;;
43628;SDS011;56545;48.224;11.678;2023-04-03T09:36:50;7.97;;;3.20;;
43628;SDS011;56545;48.224;11.678;2023-04-03T09:39:25;6.97;;;3.08;;
43628;SDS011;56545;48.224;11.678;2023-04-03T09:46:58;6.80;;;3.45;;
43628;SDS011;56545;48.224;11.678;2023-04-03T09:49:25;7.28;;;3.70;;
43628;SDS011;56545;48.224;11.678;2023-04-03T09:51:51;11.77;;;7.07;;
43628;SDS011;56545;48.224;11.678;2023-04-03T09:57:12;7.95;;;3.28;;
43628;SDS011;56545;48.224;11.678;2023-04-03T09:59:56;6.35;;;2.88;;
43628;SDS011;56545;48.224;11.678;2023-04-03T10:02:39;8.68;;;3.05;;
43628;SDS011;56545;48.224;11.678;2023-04-03T10:07:51;6.40;;;2.75;;
43628;SDS011;56545;48.224;11.678;2023-04-03T10:10:31;4.78;;;2.42;;
43628;SDS011;56545;48.224;11.678;2023-04-03T10:13:04;5.90;;;2.83;;
43628;SDS011;56545;48.224;11.678;2023-04-03T10:15:42;5.45;;;2.35;;
43628;SDS011;56545;48.224;11.678;2023-04-03T10:20:53;6.35;;;2.70;;
43628;SDS011;56545;48.224;11.678;2023-04-03T10:23:28;6.10;;;2.53;;
43628;SDS011;56545;48.224;11.678;2023-04-03T10:31:21;7.60;;;2.70;;
43628;SDS011;56545;48.224;11.678;2023-04-03T10:34:02;8.65;;;2.55;;
43628;SDS011;56545;48.224;11.678;2023-04-03T10:44:40;5.82;;;2.47;;
43628;SDS011;56545;48.224;11.678;2023-04-03T10:50:01;5.55;;;2.58;;
43628;SDS011;56545;48.224;11.678;2023-04-03T10:55:37;6.13;;;2.40;;
43628;SDS011;56545;48.224;11.678;2023-04-03T10:58:14;9.18;;;3.00;;
43628;SDS011;56545;48.224;11.678;2023-04-03T11:00:47;5.32;;;2.40;;
43628;SDS011;56545;48.224;11.678;2023-04-03T11:03:27;5.25;;;2.20;;
43628;SDS011;56545;48.224;11.678;2023-04-03T11:05:59;6.60;;;2.70;;
43628;SDS011;56545;48.224;11.678;2023-04-03T11:08:48;5.53;;;2.40;;
43628;SDS011;56545;48.224;11.678;2023-04-03T11:11:30;6.90;;;2.20;;
43628;SDS011;56545;48.224;11.678;2023-04-03T11:16:48;5.57;;;1.98;;
43628;SDS011;56545;48.224;11.678;2023-04-03T11:19:38;5.03;;;2.03;;
43628;SDS011;56545;48.224;11.678;2023-04-03T11:22:28;3.75;;;1.60;;
43628;SDS011;56545;48.224;11.678;2023-04-03T11:28:17;4.47;;;1.55;;
43628;SDS011;56545;48.224;11.678;2023-04-03T11:33:30;5.55;;;1.85;;
43628;SDS011;56545;48.224;11.678;2023-04-03T11:36:08;9.63;;;2.70;;
43628;SDS011;56545;48.224;11.678;2023-04-03T11:38:40;5.85;;;2.35;;
43628;SDS011;56545;48.224;11.678;2023-04-03T11:41:09;4.18;;;1.55;;
43628;SDS011;56545;48.224;11.678;2023-04-03T11:43:40;5.05;;;1.55;;
43628;SDS011;56545;48.224;11.678;2023-04-03T11:46:19;5.63;;;1.33;;
43628;SDS011;56545;48.224;11.678;2023-04-03T11:48:47;4.93;;;1.70;;
43628;SDS011;56545;48.224;11.678;2023-04-03T11:53:41;5.50;;;1.60;;
43628;SDS011;56545;48.224;11.678;2023-04-03T12:01:46;4.90;;;1.50;;
43628;SDS011;56545;48.224;11.678;2023-04-03T12:04:21;3.47;;;1.50;;
43628;SDS011;56545;48.224;11.678;2023-04-03T12:11:52;4.07;;;1.40;;
43628;SDS011;56545;48.224;11.678;2023-04-03T12:14:20;3.72;;;1.60;;
43628;SDS011;56545;48.224;11.678;2023-04-03T12:16:50;4.50;;;1.70;;
43628;SDS011;56545;48.224;11.678;2023-04-03T12:19:38;3.90;;;1.50;;
43628;SDS011;56545;48.224;11.678;2023-04-03T12:22:18;5.47;;;1.50;;
43628;SDS011;56545;48.224;11.678;2023-04-03T12:24:46;3.03;;;1.50;;
43628;SDS011;56545;48.224;11.678;2023-04-03T12:27:20;3.88;;;1.33;;
43628;SDS011;56545;48.224;11.678;2023-04-03T12:29:59;5.75;;;1.58;;
43628;SDS011;56545;48.224;11.678;2023-04-03T12:35:21;4.22;;;1.58;;
43628;SDS011;56545;48.224;11.678;2023-04-03T12:40:53;4.07;;;1.60;;
43628;SDS011;56545;48.224;11.678;2023-04-03T12:44:01;4.55;;;1.33;;
43628;SDS011;56545;48.224;11.678;2023-04-03T12:46:49;4.13;;;1.55;;
43628;SDS011;56545;48.224;11.678;2023-04-03T12:49:26;3.10;;;1.42;;
43628;SDS011;56545;48.224;11.678;2023-04-03T12:51:56;4.30;;;1.50;;
43628;SDS011;56545;48.224;11.678;2023-04-03T12:54:23;4.13;;;1.50;;
43628;SDS011;56545;48.224;11.678;2023-04-03T12:57:09;3.20;;;1.40;;
43628;SDS011;56545;48.224;11.678;2023-04-03T12:59:35;3.10;;;1.30;;
43628;SDS011;56545;48.224;11.678;2023-04-03T13:02:07;3.30;;;1.40;;
43628;SDS011;56545;48.224;11.678;2023-04-03T13:04:54;3.17;;;1.20;;
43628;SDS011;56545;48.224;11.678;2023-04-03T13:10:00;5.47;;;1.58;;
43628;SDS011;56545;48.224;11.678;2023-04-03T13:12:44;6.05;;;1.52;;
43628;SDS011;56545;48.224;11.678;2023-04-03T13:15:12;3.63;;;1.40;;
43628;SDS011;56545;48.224;11.678;2023-04-03T13:17:41;3.70;;;1.60;;
43628;SDS011;56545;48.224;11.678;2023-04-03T13:20:14;3.83;;;1.30;;
43628;SDS011;56545;48.224;11.678;2023-04-03T13:22:52;3.13;;;1.20;;
43628;SDS011;56545;48.224;11.678;2023-04-03T13:25:22;4.30;;;1.58;;
43628;SDS011;56545;48.224;11.678;2023-04-03T13:27:49;5.07;;;1.33;;
43628;SDS011;56545;48.224;11.678;2023-04-03T13:30:32;4.15;;;1.50;;
43628;SDS011;56545;48.224;11.678;2023-04-03T13:33:02;5.35;;;1.48;;
43628;SDS011;56545;48.224;11.678;2023-04-03T13:43:18;4.18;;;1.23;;
43628;SDS011;56545;48.224;11.678;2023-04-03T13:45:55;5.20;;;1.50;;
43628;SDS011;56545;48.224;11.678;2023-04-03T13:48:24;3.80;;;1.48;;
43628;SDS011;56545;48.224;11.678;2023-04-03T13:53:24;4.47;;;1.50;;
43628;SDS011;56545;48.224;11.678;2023-04-03T13:55:56;5.57;;;1.50;;
43628;SDS011;56545;48.224;11.678;2023-04-03T13:58:24;4.25;;;1.27;;
43628;SDS011;56545;48.224;11.678;2023-04-03T14:00:55;4.65;;;1.40;;
43628;SDS011;56545;48.224;11.678;2023-04-03T14:03:57;4.72;;;1.40;;
43628;SDS011;56545;48.224;11.678;2023-04-03T14:06:24;4.18;;;1.48;;
43628;SDS011;56545;48.224;11.678;2023-04-03T14:08:51;4.72;;;1.40;;
43628;SDS011;56545;48.224;11.678;2023-04-03T14:11:19;4.53;;;1.45;;
43628;SDS011;56545;48.224;11.678;2023-04-03T14:13:47;4.18;;;1.30;;
43628;SDS011;56545;48.224;11.678;2023-04-03T14:16:15;5.65;;;1.30;;
43628;SDS011;56545;48.224;11.678;2023-04-03T14:18:50;5.07;;;1.40;;
43628;SDS011;56545;48.224;11.678;2023-04-03T14:21:18;2.28;;;1.10;;
43628;SDS011;56545;48.224;11.678;2023-04-03T14:23:45;2.97;;;1.02;;
43628;SDS011;56545;48.224;11.678;2023-04-03T14:26:18;3.30;;;1.30;;
43628;SDS011;56545;48.224;11.678;2023-04-03T14:28:48;3.95;;;1.35;;
43628;SDS011;56545;48.224;11.678;2023-04-03T14:31:16;3.08;;;1.15;;
43628;SDS011;56545;48.224;11.678;2023-04-03T14:33:42;4.45;;;1.40;;
43628;SDS011;56545;48.224;11.678;2023-04-03T14:36:13;4.03;;;1.20;;
43628;SDS011;56545;48.224;11.678;2023-04-03T14:38:41;6.57;;;2.85;;
43628;SDS011;56545;48.224;11.678;2023-04-03T14:41:10;3.25;;;1.20;;
43628;SDS011;56545;48.224;11.678;2023-04-03T14:43:40;3.65;;;1.27;;
43628;SDS011;56545;48.224;11.678;2023-04-03T14:46:14;3.58;;;1.13;;
43628;SDS011;56545;48.224;11.678;2023-04-03T14:48:42;3.25;;;1.20;;
43628;SDS011;56545;48.224;11.678;2023-04-03T14:51:11;3.13;;;1.20;;
43628;SDS011;56545;48.224;11.678;2023-04-03T14:53:38;3.30;;;1.20;;
43628;SDS011;56545;48.224;11.678;2023-04-03T14:56:16;3.42;;;1.35;;
43628;SDS011;56545;48.224;11.678;2023-04-03T14:58:48;3.67;;;1.17;;
43628;SDS011;56545;48.224;11.678;2023-04-03T15:01:17;2.95;;;1.08;;
43628;SDS011;56545;48.224;11.678;2023-04-03T15:03:43;4.20;;;1.20;;
43628;SDS011;56545;48.224;11.678;2023-04-03T15:06:13;4.05;;;1.13;;
43628;SDS011;56545;48.224;11.678;2023-04-03T15:08:40;3.40;;;1.10;;
43628;SDS011;56545;48.224;11.678;2023-04-03T15:11:07;3.80;;;1.30;;
43628;SDS011;56545;48.224;11.678;2023-04-03T15:13:38;2.65;;;1.10;;
43628;SDS011;56545;48.224;11.678;2023-04-03T15:16:05;3.13;;;1.20;;
43628;SDS011;56545;48.224;11.678;2023-04-03T15:18:37;4.82;;;1.30;;
43628;SDS011;56545;48.224;11.678;2023-04-03T15:21:03;4.68;;;1.30;;
43628;SDS011;56545;48.224;11.678;2023-04-03T15:23:30;2.85;;;1.25;;
43628;SDS011;56545;48.224;11.678;2023-04-03T15:25:56;2.30;;;1.08;;
43628;SDS011;56545;48.224;11.678;2023-04-03T15:30:52;3.58;;;1.40;;
43628;SDS011;56545;48.224;11.678;2023-04-03T15:33:18;5.93;;;1.40;;
43628;SDS011;56545;48.224;11.678;2023-04-03T15:35:45;4.35;;;1.23;;
43628;SDS011;56545;48.224;11.678;2023-04-03T15:38:11;7.38;;;1.30;;
43628;SDS011;56545;48.224;11.678;2023-04-03T15:40:37;3.13;;;1.38;;
43628;SDS011;56545;48.224;11.678;2023-04-03T15:43:04;4.93;;;1.40;;
43628;SDS011;56545;48.224;11.678;2023-04-03T15:45:31;4.95;;;1.60;;
43628;SDS011;56545;48.224;11.678;2023-04-03T15:47:58;3.38;;;1.40;;
43628;SDS011;56545;48.224;11.678;2023-04-03T15:50:24;3.17;;;1.17;;
43628;SDS011;56545;48.224;11.678;2023-04-03T15:52:51;15.63;;;7.68;;
43628;SDS011;56545;48.224;11.678;2023-04-03T15:55:20;11.45;;;6.25;;
43628;SDS011;56545;48.224;11.678;2023-04-03T15:57:47;4.22;;;1.40;;
43628;SDS011;56545;48.224;11.678;2023-04-03T16:00:13;4.05;;;1.30;;
43628;SDS011;56545;48.224;11.678;2023-04-03T16:02:39;4.30;;;1.50;;
43628;SDS011;56545;48.224;11.678;2023-04-03T16:05:07;3.00;;;1.30;;
43628;SDS011;56545;48.224;11.678;2023-04-03T16:07:34;3.22;;;1.10;;
43628;SDS011;56545;48.224;11.678;2023-04-03T16:10:01;4.43;;;1.30;;
43628;SDS011;56545;48.224;11.678;2023-04-03T16:12:27;3.40;;;1.20;;
43628;SDS011;56545;48.224;11.678;2023-04-03T16:14:53;3.03;;;1.20;;
43628;SDS011;56545;48.224;11.678;2023-04-03T16:17:19;3.15;;;1.13;;
43628;SDS011;56545;48.224;11.678;2023-04-03T16:19:45;3.03;;;1.20;;